Time;durP1;ratioP1;P1;durP2;ratioP2;P2;SDS_P1;SDS_P2;PMS_P1;PMS_P2;Temp;Humidity;BMP_temperature;BMP_pressure;BME280_temperature;BME280_humidity;BME280_pressure;Samples;Min_cycle;Max_cycle;Signal;HPM_P1;HPM_P2
2023/05/08 00:01:07;;;;;;;;;;;10.40;99.90;;;;;;5058526;28;20033;-64
2023/05/08 00:03:33;;;;;;;13.23;10.10;;;10.40;99.90;;;;;;5056415;28;19994;-64
2023/05/08 00:05:58;;;;;;;;;;;10.40;99.90;;;;;;5057436;28;20131;-64
2023/05/08 00:08:24;;;;;;;16.25;10.13;;;10.50;99.90;;;;;;5057766;28;19921;-63
2023/05/08 00:10:49;;;;;;;;;;;10.40;99.90;;;;;;5057527;28;20039;-63
2023/05/08 00:13:15;;;;;;;9.35;7.90;;;10.50;99.90;;;;;;5058296;28;19917;-63
2023/05/08 00:15:41;;;;;;;;;;;10.40;99.90;;;;;;5060617;28;20048;-64
2023/05/08 00:18:06;;;;;;;13.05;9.23;;;10.40;99.90;;;;;;5050031;28;19917;-64
2023/05/08 00:20:33;;;;;;;;;;;10.40;99.90;;;;;;5045541;28;20033;-63
2023/05/08 00:22:58;;;;;;;17.70;10.82;;;10.40;99.90;;;;;;5041544;28;19917;-63
2023/05/08 00:25:27;;;;;;;12.88;8.43;;;10.40;99.90;;;;;;5039397;28;20118;-63
2023/05/08 00:27:53;;;;;;;10.65;8.45;;;10.40;99.90;;;;;;5025508;28;20116;-64
2023/05/08 00:30:18;;;;;;;;;;;10.40;99.90;;;;;;5040599;28;20253;-62
2023/05/08 00:32:45;;;;;;;12.45;9.77;;;10.40;99.90;;;;;;5043918;28;19935;-66
2023/05/08 00:35:11;;;;;;;12.20;9.55;;;10.40;99.90;;;;;;5045753;28;20037;-64
2023/05/08 00:37:39;;;;;;;;;;;10.40;99.90;;;;;;5046648;28;20059;-64
2023/05/08 00:40:09;;;;;;;14.82;10.15;;;10.40;99.90;;;;;;5044061;28;19920;-63
2023/05/08 00:42:34;;;;;;;14.05;10.43;;;10.40;99.90;;;;;;5043300;28;20066;-63
2023/05/08 00:45:00;;;;;;;;;;;10.40;99.90;;;;;;5044511;28;20057;-63
2023/05/08 00:47:25;;;;;;;11.65;8.57;;;10.50;99.90;;;;;;5044338;28;19925;-64
2023/05/08 00:49:51;;;;;;;;;;;10.50;99.90;;;;;;5045838;28;20072;-63
2023/05/08 00:52:18;;;;;;;14.20;8.38;;;10.50;99.90;;;;;;5044244;28;20407;-63
2023/05/08 00:54:45;;;;;;;11.77;8.73;;;10.50;99.90;;;;;;5045849;28;20041;-63
2023/05/08 00:57:11;;;;;;;17.02;10.45;;;10.50;99.90;;;;;;5045544;28;20049;-64
2023/05/08 00:59:40;;;;;;;11.65;9.40;;;10.50;99.90;;;;;;5045691;28;20056;-64
2023/05/08 01:02:06;;;;;;;13.48;8.68;;;10.50;99.90;;;;;;5043111;28;20075;-65
2023/05/08 01:04:33;;;;;;;12.90;8.20;;;10.50;99.90;;;;;;5043071;28;20575;-64
2023/05/08 01:07:00;;;;;;;13.30;8.95;;;10.50;99.90;;;;;;5045069;28;20041;-63
2023/05/08 01:09:26;;;;;;;13.80;10.68;;;10.50;99.90;;;;;;5044770;28;20045;-64
2023/05/08 01:12:00;;;;;;;;;;;10.50;99.90;;;;;;5043185;28;20043;-63
2023/05/08 01:14:38;;;;;;;11.98;9.23;;;10.50;99.90;;;;;;5044179;28;20507;-63
2023/05/08 01:17:18;;;;;;;13.23;9.93;;;10.50;99.90;;;;;;5045922;28;20166;-63
2023/05/08 01:20:09;;;;;;;18.33;11.90;;;10.30;99.90;;;;;;5044402;28;20123;-63
2023/05/08 01:23:08;;;;;;;13.70;9.63;;;10.30;99.90;;;;;;5040114;28;20535;-63
2023/05/08 01:26:01;;;;;;;13.45;10.50;;;10.40;99.90;;;;;;5045317;28;20148;-63
2023/05/08 01:28:37;;;;;;;12.82;10.15;;;10.40;99.90;;;;;;5041163;28;20041;-63
2023/05/08 01:31:25;;;;;;;17.93;10.60;;;10.40;99.90;;;;;;5042952;28;20037;-64
2023/05/08 01:34:03;;;;;;;18.35;11.18;;;10.30;99.90;;;;;;5045127;28;20044;-63
2023/05/08 01:36:50;;;;;;;15.23;11.35;;;10.30;99.90;;;;;;5044392;28;20083;-62
2023/05/08 01:39:42;;;;;;;14.27;10.23;;;10.20;99.90;;;;;;5042401;28;20036;-63
2023/05/08 01:42:25;;;;;;;14.45;10.77;;;10.20;99.90;;;;;;5037455;28;20061;-64
2023/05/08 01:44:56;;;;;;;13.88;10.35;;;10.20;99.90;;;;;;5041525;28;20206;-64
2023/05/08 01:47:31;;;;;;;18.58;11.25;;;10.30;99.90;;;;;;5044212;28;20052;-64
2023/05/08 01:50:07;;;;;;;17.77;11.05;;;10.20;99.90;;;;;;5044394;28;20041;-64
2023/05/08 01:52:42;;;;;;;;;;;10.20;99.90;;;;;;5040468;28;20390;-64
2023/05/08 01:55:16;;;;;;;12.60;9.80;;;10.10;99.90;;;;;;5043405;28;19948;-64
2023/05/08 01:57:49;;;;;;;12.55;9.82;;;10.20;99.90;;;;;;5043718;28;20381;-64
2023/05/08 02:00:18;;;;;;;15.63;10.88;;;10.20;99.90;;;;;;5042396;28;20060;-64
2023/05/08 02:02:45;;;;;;;15.93;10.43;;;10.20;99.90;;;;;;5039408;28;20120;-64
2023/05/08 02:05:12;;;;;;;16.50;11.13;;;10.10;99.90;;;;;;5042172;28;20392;-64
2023/05/08 02:07:39;;;;;;;12.70;10.00;;;10.10;99.90;;;;;;5040457;28;20040;-64
2023/05/08 02:10:06;;;;;;;15.13;10.80;;;10.10;99.90;;;;;;5044005;28;20056;-64
2023/05/08 02:12:33;;;;;;;12.32;9.68;;;10.10;99.90;;;;;;5039957;28;20076;-64
2023/05/08 02:15:00;;;;;;;13.45;10.13;;;10.10;99.90;;;;;;5044052;28;20037;-64
2023/05/08 02:17:27;;;;;;;15.65;10.07;;;10.20;99.90;;;;;;5044337;28;20053;-64
2023/05/08 02:19:55;;;;;;;14.77;10.10;;;10.10;99.90;;;;;;5043388;28;20045;-64
2023/05/08 02:22:23;;;;;;;14.02;10.15;;;10.20;99.90;;;;;;5039178;28;20127;-64
2023/05/08 02:24:54;;;;;;;12.38;9.20;;;10.20;99.90;;;;;;5040149;28;20033;-64
2023/05/08 02:27:22;;;;;;;14.25;10.10;;;10.10;99.90;;;;;;5042501;28;20040;-64
2023/05/08 02:29:49;;;;;;;13.18;9.68;;;10.20;99.90;;;;;;5037603;28;20041;-64
2023/05/08 02:32:17;;;;;;;15.30;10.35;;;10.20;99.90;;;;;;5039179;28;20040;-64
2023/05/08 02:34:43;;;;;;;19.25;10.48;;;10.20;99.90;;;;;;5042660;28;20041;-64
2023/05/08 02:37:10;;;;;;;15.95;10.02;;;10.20;99.90;;;;;;5043194;28;20052;-65
2023/05/08 02:39:37;;;;;;;12.73;9.88;;;10.20;99.90;;;;;;5042374;28;20075;-64
2023/05/08 02:42:03;;;;;;;11.57;9.52;;;10.10;99.90;;;;;;5042159;28;20037;-64
2023/05/08 02:44:28;;;;;;;;;;;10.10;99.90;;;;;;5043913;28;20044;-64
2023/05/08 02:47:04;;;;;;;15.38;9.23;;;10.10;99.90;;;;;;5043118;28;19983;-64
2023/05/08 02:50:03;;;;;;;12.07;9.25;;;10.10;99.90;;;;;;5043170;28;20124;-64
2023/05/08 02:52:37;;;;;;;15.95;10.43;;;10.10;99.90;;;;;;5039075;28;20044;-64
2023/05/08 02:55:40;;;;;;;12.32;9.10;;;10.10;99.90;;;;;;5041900;28;20037;-64
2023/05/08 02:58:30;;;;;;;13.88;10.38;;;10.00;99.90;;;;;;5034256;28;20067;-64
2023/05/08 03:01:00;;;;;;;16.15;10.93;;;10.00;99.90;;;;;;5039553;28;20040;-64
2023/05/08 03:03:43;;;;;;;14.15;10.55;;;10.00;99.90;;;;;;5042325;28;20072;-64
2023/05/08 03:06:13;;;;;;;16.00;10.50;;;10.00;99.90;;;;;;5037409;28;20049;-64
2023/05/08 03:08:40;;;;;;;16.65;9.90;;;10.00;99.90;;;;;;5041885;28;20084;-64
2023/05/08 03:11:20;;;;;;;16.55;10.10;;;10.00;99.90;;;;;;5041724;28;20080;-64
2023/05/08 03:13:48;;;;;;;15.48;9.50;;;10.00;99.90;;;;;;5041123;28;20044;-64
2023/05/08 03:16:22;;;;;;;11.20;9.63;;;10.00;99.90;;;;;;5041833;28;20131;-64
2023/05/08 03:19:12;;;;;;;11.93;8.32;;;10.00;99.90;;;;;;5031625;28;20488;-64
2023/05/08 03:21:41;;;;;;;15.90;10.73;;;10.00;99.90;;;;;;5037971;28;20044;-64
2023/05/08 03:24:08;;;;;;;11.68;8.80;;;10.00;99.90;;;;;;5040889;28;20048;-64
2023/05/08 03:26:35;;;;;;;13.88;9.65;;;10.00;99.90;;;;;;5039706;28;20076;-64
2023/05/08 03:29:02;;;;;;;12.25;8.80;;;10.10;99.90;;;;;;5042733;28;20039;-63
2023/05/08 03:31:31;;;;;;;13.07;9.60;;;10.10;99.90;;;;;;5041420;28;20073;-63
2023/05/08 03:33:57;;;;;;;12.57;9.07;;;10.10;99.90;;;;;;5040608;28;20045;-64
2023/05/08 03:36:25;;;;;;;;;;;10.10;99.90;;;;;;5041756;28;20041;-63
2023/05/08 03:38:52;;;;;;;14.98;9.40;;;10.10;99.90;;;;;;5047842;28;19917;-63
2023/05/08 03:41:17;;;;;;;14.65;9.48;;;10.10;99.90;;;;;;5040114;28;20523;-64
2023/05/08 03:43:44;;;;;;;;;;;10.20;99.90;;;;;;5044115;28;20116;-64
2023/05/08 03:46:11;;;;;;;12.35;9.40;;;10.10;99.90;;;;;;5045185;28;19920;-64
2023/05/08 03:48:38;;;;;;;14.95;9.32;;;10.00;99.90;;;;;;5044114;28;20053;-64
2023/05/08 03:51:04;;;;;;;13.70;9.90;;;10.00;99.90;;;;;;5042179;28;20406;-65
2023/05/08 03:53:30;;;;;;;;;;;10.10;99.90;;;;;;5041026;28;20044;-64
2023/05/08 03:55:57;;;;;;;15.33;9.97;;;10.10;99.90;;;;;;5046915;28;19921;-64
2023/05/08 03:58:43;;;;;;;11.68;9.38;;;10.10;99.90;;;;;;5046284;28;20043;-64
2023/05/08 04:01:16;;;;;;;12.93;10.07;;;10.10;99.90;;;;;;5045999;28;20072;-64
2023/05/08 04:04:03;;;;;;;10.23;8.38;;;10.10;99.90;;;;;;5047450;28;20116;-64
2023/05/08 04:06:47;;;;;;;15.85;8.57;;;10.10;99.90;;;;;;5047730;28;20047;-64
2023/05/08 04:09:23;;;;;;;15.27;9.10;;;10.10;99.90;;;;;;5042342;28;20041;-65
2023/05/08 04:11:59;;;;;;;15.90;10.80;;;10.20;99.90;;;;;;5043994;28;20108;-65
2023/05/08 04:14:29;;;;;;;13.60;9.38;;;10.10;99.90;;;;;;5047412;28;20140;-65
2023/05/08 04:17:01;;;;;;;13.32;9.80;;;10.10;99.90;;;;;;5040064;28;20122;-65
2023/05/08 04:19:32;;;;;;;13.43;10.20;;;10.10;99.90;;;;;;5048191;28;20037;-64
2023/05/08 04:22:03;;;;;;;16.92;10.32;;;10.10;99.90;;;;;;5047400;28;20095;-65
2023/05/08 04:24:32;;;;;;;14.80;10.40;;;10.10;99.90;;;;;;5046561;28;20067;-65
2023/05/08 04:27:00;;;;;;;12.43;9.90;;;10.20;99.90;;;;;;5045615;28;20079;-64
2023/05/08 04:29:26;;;;;;;15.82;10.18;;;10.20;99.90;;;;;;5045757;28;20044;-63
2023/05/08 04:31:52;;;;;;;15.35;10.25;;;10.20;99.90;;;;;;5044425;28;20041;-63
2023/05/08 04:34:17;;;;;;;;;;;10.20;99.90;;;;;;5034958;28;20078;-65
2023/05/08 04:36:44;;;;;;;13.88;9.18;;;10.20;99.90;;;;;;5042760;28;19921;-64
2023/05/08 04:39:10;;;;;;;13.18;9.35;;;10.20;99.90;;;;;;5044685;28;20045;-64
2023/05/08 04:41:35;;;;;;;;;;;10.30;99.90;;;;;;5044903;28;20045;-65
2023/05/08 04:44:04;;;;;;;11.93;9.23;;;10.30;99.90;;;;;;5046601;28;20031;-64
2023/05/08 04:46:29;;;;;;;18.67;10.95;;;10.20;99.90;;;;;;5044882;28;20199;-65
2023/05/08 04:48:55;;;;;;;;;;;10.20;99.90;;;;;;5047189;28;20564;-64
2023/05/08 04:51:21;;;;;;;13.15;9.73;;;10.30;99.90;;;;;;5046221;28;19917;-65
2023/05/08 04:53:46;;;;;;;;;;;10.30;99.90;;;;;;5046245;28;20080;-64
2023/05/08 04:56:12;;;;;;;12.00;9.38;;;10.30;99.90;;;;;;5045951;28;19921;-64
2023/05/08 04:58:37;;;;;;;;;;;10.30;99.90;;;;;;5042865;28;20045;-64
2023/05/08 05:01:04;;;;;;;13.38;8.40;;;10.40;99.90;;;;;;5044464;28;19920;-63
2023/05/08 05:03:29;;;;;;;12.85;8.90;;;10.40;99.90;;;;;;5045422;28;20029;-65
2023/05/08 05:05:59;;;;;;;;;;;10.50;99.90;;;;;;5046928;28;20041;-65
2023/05/08 05:08:25;;;;;;;9.02;7.28;;;10.50;99.90;;;;;;5044421;28;19920;-64
2023/05/08 05:10:50;;;;;;;;;;;10.50;99.90;;;;;;5044778;28;20055;-64
2023/05/08 05:13:16;;;;;;;12.07;8.40;;;10.60;99.90;;;;;;5044309;28;20019;-64
2023/05/08 05:15:42;;;;;;;11.57;8.32;;;10.60;99.90;;;;;;5045879;28;20833;-64
2023/05/08 05:18:07;;;;;;;11.95;9.30;;;10.60;99.90;;;;;;5046787;28;20069;-64
2023/05/08 05:20:33;;;;;;;;;;;10.60;99.90;;;;;;5044530;28;20064;-64
2023/05/08 05:22:58;;;;;;;14.55;9.13;;;10.60;99.90;;;;;;5044636;28;19917;-64
2023/05/08 05:25:24;;;;;;;;;;;10.60;99.90;;;;;;5045621;28;20835;-64
2023/05/08 05:27:50;;;;;;;14.30;9.07;;;10.60;99.90;;;;;;5045426;28;19916;-66
2023/05/08 05:30:15;;;;;;;;;;;10.60;99.90;;;;;;5044106;28;20071;-65
2023/05/08 05:32:41;;;;;;;12.32;8.88;;;10.60;99.90;;;;;;5040728;28;20005;-64
2023/05/08 05:35:07;;;;;;;;;;;10.60;99.90;;;;;;5045247;28;20056;-65
2023/05/08 05:37:33;;;;;;;11.40;9.33;;;10.60;99.90;;;;;;5043067;28;20373;-64
2023/05/08 05:39:59;;;;;;;12.75;9.45;;;10.60;99.90;;;;;;5040207;28;20040;-64
2023/05/08 05:42:24;;;;;;;;;;;10.70;99.90;;;;;;5045233;28;20047;-63
2023/05/08 05:44:50;;;;;;;13.57;8.43;;;10.60;99.90;;;;;;5042431;28;19939;-63
2023/05/08 05:47:15;;;;;;;;;;;10.70;99.90;;;;;;5045811;28;20536;-64
2023/05/08 05:49:45;;;;;;;11.65;9.07;;;10.70;99.90;;;;;;5045210;28;19920;-65
2023/05/08 05:52:11;;;;;;;12.02;9.23;;;10.70;99.90;;;;;;5044457;28;20041;-67
2023/05/08 05:54:37;;;;;;;;;;;10.70;99.90;;;;;;5045231;28;20124;-66
2023/05/08 05:57:03;;;;;;;12.63;8.85;;;10.70;99.90;;;;;;5043752;28;20545;-63
2023/05/08 05:59:29;;;;;;;10.57;8.93;;;10.80;99.90;;;;;;5044412;28;20033;-65
2023/05/08 06:01:55;;;;;;;;;;;10.80;99.90;;;;;;5040219;28;20043;-65
2023/05/08 06:04:20;;;;;;;13.55;10.13;;;10.80;99.90;;;;;;5045018;28;20008;-65
2023/05/08 06:06:46;;;;;;;15.40;9.90;;;10.80;99.90;;;;;;5044417;28;20508;-65
2023/05/08 06:09:12;;;;;;;;;;;10.90;99.90;;;;;;5041052;28;20568;-64
2023/05/08 06:11:37;;;;;;;12.05;8.75;;;10.90;99.90;;;;;;5042164;28;19916;-63
2023/05/08 06:14:03;;;;;;;;;;;10.90;99.90;;;;;;5044845;28;20112;-64
2023/05/08 06:16:29;;;;;;;13.02;8.77;;;10.90;99.90;;;;;;5044891;28;20018;-65
2023/05/08 06:18:55;;;;;;;17.70;9.82;;;10.90;99.90;;;;;;5042671;28;20180;-65
2023/05/08 06:21:21;;;;;;;13.50;9.70;;;10.90;99.90;;;;;;5042950;28;20641;-64
2023/05/08 06:23:47;;;;;;;;;;;11.00;99.90;;;;;;5043727;28;20032;-65
2023/05/08 06:26:12;;;;;;;16.73;9.10;;;11.00;99.90;;;;;;5043844;28;19920;-64
2023/05/08 06:28:38;;;;;;;;;;;11.10;99.90;;;;;;5045099;28;20052;-64
2023/05/08 06:31:03;;;;;;;14.75;9.98;;;11.10;99.90;;;;;;5043115;28;19920;-65
2023/05/08 06:33:29;;;;;;;;;;;11.10;99.90;;;;;;5045167;28;20033;-63
2023/05/08 06:35:55;;;;;;;13.15;8.48;;;11.10;99.90;;;;;;5043518;28;19920;-65
2023/05/08 06:38:20;;;;;;;;;;;11.20;99.90;;;;;;5041824;28;20045;-65
2023/05/08 06:40:46;;;;;;;11.20;7.95;;;11.20;99.90;;;;;;5042090;28;19942;-65
2023/05/08 06:43:12;;;;;;;11.57;9.07;;;11.30;99.90;;;;;;5030922;28;20049;-65
2023/05/08 06:45:38;;;;;;;;;;;11.30;99.90;;;;;;5033199;28;20076;-64
2023/05/08 06:48:04;;;;;;;13.75;8.32;;;11.40;99.90;;;;;;5044253;28;19927;-64
2023/05/08 06:50:30;;;;;;;11.98;9.10;;;11.50;99.90;;;;;;5042551;28;20048;-65
2023/05/08 06:52:55;;;;;;;;;;;11.50;99.90;;;;;;5041162;28;20045;-65
2023/05/08 06:55:21;;;;;;;12.75;8.23;;;11.50;99.90;;;;;;5041048;28;19912;-64
2023/05/08 06:57:46;;;;;;;15.75;9.38;;;11.60;99.90;;;;;;5044335;28;20040;-64
2023/05/08 07:00:12;;;;;;;;;;;11.70;99.90;;;;;;5044474;28;20037;-64
2023/05/08 07:02:38;;;;;;;14.85;9.05;;;11.80;99.90;;;;;;5038478;28;20118;-64
2023/05/08 07:05:03;;;;;;;;;;;11.90;99.90;;;;;;5043548;28;20044;-65
2023/05/08 07:07:29;;;;;;;10.20;8.25;;;12.10;99.90;;;;;;5042159;28;19924;-66
2023/05/08 07:09:55;;;;;;;;;;;12.10;99.90;;;;;;5057257;28;20051;-64
2023/05/08 07:12:20;;;;;;;11.25;6.82;;;12.20;99.90;;;;;;5040296;28;19917;-64
2023/05/08 07:14:46;;;;;;;;;;;12.40;99.90;;;;;;5041410;28;20086;-64
2023/05/08 07:17:11;;;;;;;8.70;7.32;;;12.50;99.90;;;;;;5042367;28;19950;-64
2023/05/08 07:19:37;;;;;;;10.85;7.30;;;12.70;99.90;;;;;;5042173;28;20489;-64
2023/05/08 07:22:03;;;;;;;;;;;12.70;99.90;;;;;;5039635;28;20048;-64
2023/05/08 07:24:29;;;;;;;8.77;7.35;;;12.80;99.90;;;;;;5043035;28;19932;-65
2023/05/08 07:26:55;;;;;;;;;;;12.90;99.90;;;;;;5043850;28;20049;-65
2023/05/08 07:29:20;;;;;;;10.68;7.45;;;13.00;99.90;;;;;;5047341;28;19917;-65
2023/05/08 07:31:47;;;;;;;;;;;13.00;99.90;;;;;;5045074;28;20128;-66
2023/05/08 07:34:13;;;;;;;10.23;7.70;;;12.80;99.90;;;;;;5048018;28;20018;-65
2023/05/08 07:36:39;;;;;;;9.75;6.53;;;12.70;99.90;;;;;;5045478;28;20072;-64
2023/05/08 07:39:04;;;;;;;;;;;12.80;99.90;;;;;;5046218;28;20097;-65
2023/05/08 07:41:31;;;;;;;14.32;6.50;;;12.90;99.90;;;;;;5044919;28;19921;-65
2023/05/08 07:43:56;;;;;;;7.97;5.85;;;12.90;99.90;;;;;;5047651;28;20044;-66
2023/05/08 07:46:22;;;;;;;;;;;13.10;99.90;;;;;;5049551;28;20059;-65
2023/05/08 07:48:48;;;;;;;11.05;7.00;;;13.30;99.90;;;;;;5037468;28;19916;-66
2023/05/08 07:51:14;;;;;;;11.90;6.88;;;13.60;99.90;;;;;;5044718;28;20118;-65
2023/05/08 07:53:39;;;;;;;;;;;13.80;99.90;;;;;;5046096;28;20037;-66
2023/05/08 07:56:05;;;;;;;14.40;5.90;;;14.20;99.90;;;;;;5046119;28;19921;-65
2023/05/08 07:58:31;;;;;;;9.27;6.55;;;14.50;99.90;;;;;;5047278;28;20052;-65
2023/05/08 08:00:56;;;;;;;;;;;14.70;99.90;;;;;;5044729;28;20421;-64
2023/05/08 08:03:22;;;;;;;8.32;6.60;;;14.70;99.90;;;;;;5047360;28;19920;-63
2023/05/08 08:05:47;;;;;;;;;;;14.80;99.90;;;;;;5046919;28;20041;-64
2023/05/08 08:08:14;;;;;;;12.15;6.35;;;14.90;99.90;;;;;;5047292;28;19928;-63
2023/05/08 08:10:40;;;;;;;6.65;5.20;;;14.80;99.90;;;;;;5047166;28;20708;-63
2023/05/08 08:13:06;;;;;;;;;;;15.10;99.90;;;;;;5062761;28;20064;-64
2023/05/08 08:15:31;;;;;;;8.57;5.75;;;15.20;99.90;;;;;;5047690;28;19936;-63
2023/05/08 08:17:57;;;;;;;;;;;15.30;99.90;;;;;;5047504;28;20094;-63
2023/05/08 08:20:22;;;;;;;11.85;6.22;;;15.40;99.90;;;;;;5046666;28;19920;-64
2023/05/08 08:22:48;;;;;;;;;;;15.50;99.90;;;;;;5046294;28;20049;-64
2023/05/08 08:25:14;;;;;;;7.70;5.80;;;15.70;99.90;;;;;;5047151;28;19962;-63
2023/05/08 08:27:40;;;;;;;10.10;5.63;;;15.70;99.90;;;;;;5046705;28;20431;-65
2023/05/08 08:30:06;;;;;;;9.90;6.85;;;15.70;99.90;;;;;;5046598;28;20047;-65
2023/05/08 08:32:32;;;;;;;7.97;5.90;;;15.90;99.90;;;;;;5042733;28;20033;-65
2023/05/08 08:34:57;;;;;;;;;;;15.90;99.90;;;;;;5035583;28;20044;-63
2023/05/08 08:37:25;;;;;;;8.52;5.70;;;15.90;99.90;;;;;;5043330;28;20617;-65
2023/05/08 08:39:50;;;;;;;8.40;5.93;;;16.00;99.90;;;;;;5039222;28;20111;-65
2023/05/08 08:42:16;;;;;;;;;;;16.10;99.90;;;;;;5044010;28;20045;-65
2023/05/08 08:44:42;;;;;;;9.70;5.72;;;16.20;99.90;;;;;;5039821;28;20042;-65
2023/05/08 08:47:09;;;;;;;;;;;16.30;99.90;;;;;;5038027;28;20119;-65
2023/05/08 08:49:40;;;;;;;10.77;6.05;;;16.40;99.90;;;;;;5040674;28;19920;-65
2023/05/08 08:52:27;;;;;;;13.55;7.13;;;16.60;99.90;;;;;;5044949;28;20127;-65
2023/05/08 08:54:54;;;;;;;;;;;16.90;99.90;;;;;;5046891;28;20052;-65
2023/05/08 08:57:21;;;;;;;6.85;5.40;;;17.20;99.90;;;;;;5044863;28;19916;-64
2023/05/08 08:59:48;;;;;;;16.13;5.90;;;17.40;99.90;;;;;;5045213;28;20041;-64
2023/05/08 09:02:16;;;;;;;9.50;5.40;;;17.60;99.90;;;;;;5042310;28;20045;-64
2023/05/08 09:04:42;;;;;;;8.98;6.60;;;17.80;99.90;;;;;;5046502;28;20132;-64
2023/05/08 09:07:09;;;;;;;;;;;17.80;99.90;;;;;;5047313;28;20147;-64
2023/05/08 09:09:39;;;;;;;8.13;6.10;;;17.90;99.90;;;;;;5044658;28;20463;-63
2023/05/08 09:12:05;;;;;;;6.68;5.40;;;18.00;99.90;;;;;;5044736;28;20735;-63
2023/05/08 09:14:31;;;;;;;8.13;6.00;;;17.90;99.90;;;;;;5046169;28;20044;-63
2023/05/08 09:16:57;;;;;;;;;;;18.10;99.90;;;;;;5046660;28;20036;-64
2023/05/08 09:19:24;;;;;;;7.50;5.53;;;18.20;99.90;;;;;;5046852;28;20596;-64
2023/05/08 09:21:50;;;;;;;8.50;6.05;;;18.30;99.90;;;;;;5046260;28;20044;-63
2023/05/08 09:24:16;;;;;;;7.45;5.93;;;18.10;99.90;;;;;;5046647;28;20087;-64
2023/05/08 09:26:41;;;;;;;;;;;18.10;99.90;;;;;;5046377;28;20053;-65
2023/05/08 09:29:18;;;;;;;8.95;6.30;;;18.10;99.90;;;;;;5045937;28;19923;-64
2023/05/08 09:31:48;;;;;;;8.10;5.13;;;18.10;99.90;;;;;;5041046;28;20037;-64
2023/05/08 09:34:28;;;;;;;9.05;6.00;;;18.10;99.90;;;;;;5043049;28;20055;-64
2023/05/08 09:37:10;;;;;;;7.30;5.22;;;18.00;99.90;;;;;;5046310;28;20048;-64
2023/05/08 09:39:35;;;;;;;10.05;6.22;;;18.10;99.90;;;;;;5044102;28;20533;-64
2023/05/08 09:42:04;;;;;;;;;;;18.20;99.90;;;;;;5042910;28;20074;-63
2023/05/08 09:44:48;;;;;;;9.77;5.93;;;18.20;99.90;;;;;;5043345;28;20329;-63
2023/05/08 09:47:19;;;;;;;6.45;4.97;;;18.20;99.90;;;;;;5040125;28;20040;-64
2023/05/08 09:50:07;;;;;;;10.48;6.00;;;18.30;99.90;;;;;;5041079;28;20044;-67
2023/05/08 09:52:35;;;;;;;6.88;5.40;;;18.40;99.90;;;;;;5035826;28;20045;-64
2023/05/08 09:55:08;;;;;;;8.52;5.45;;;18.20;99.90;;;;;;5039836;28;20033;-64
2023/05/08 09:57:37;;;;;;;6.88;5.28;;;18.20;99.90;;;;;;5042895;28;20425;-64
2023/05/08 10:00:08;;;;;;;6.78;5.50;;;18.20;99.90;;;;;;5046276;28;20044;-65
2023/05/08 10:02:35;;;;;;;7.68;5.68;;;18.30;99.90;;;;;;5037731;28;20103;-63
2023/05/08 10:05:01;;;;;;;8.63;5.68;;;18.30;99.90;;;;;;5044188;28;20106;-63
2023/05/08 10:07:36;;;;;;;7.20;5.53;;;18.20;99.90;;;;;;5045481;28;20043;-64
2023/05/08 10:10:05;;;;;;;8.50;5.68;;;18.20;99.90;;;;;;5045208;28;20489;-64
2023/05/08 10:12:31;;;;;;;6.22;5.32;;;18.30;99.90;;;;;;5043782;28;20083;-63
2023/05/08 10:14:58;;;;;;;8.35;5.43;;;18.50;99.90;;;;;;5045013;28;20041;-64
2023/05/08 10:18:13;;;;;;;7.68;5.30;;;18.50;99.90;;;;;;5044739;28;20041;-64
2023/05/08 10:20:40;;;;;;;7.22;5.50;;;18.70;99.90;;;;;;5043554;28;20045;-64
2023/05/08 10:23:10;;;;;;;6.53;4.85;;;18.80;99.90;;;;;;5042109;28;20033;-63
2023/05/08 10:25:41;;;;;;;9.85;5.40;;;18.90;99.90;;;;;;5020651;28;20033;-63
2023/05/08 10:28:17;;;;;;;9.98;5.47;;;19.10;99.90;;;;;;5033312;28;20063;-64
2023/05/08 10:30:47;;;;;;;8.50;5.32;;;19.30;99.90;;;;;;5040770;28;20041;-63
2023/05/08 10:33:15;;;;;;;7.97;4.60;;;19.40;99.90;;;;;;5042079;28;20036;-64
2023/05/08 10:35:41;;;;;;;5.53;4.43;;;19.50;99.90;;;;;;5044267;28;20083;-65
2023/05/08 10:38:08;;;;;;;14.85;5.38;;;19.60;99.90;;;;;;5038878;28;20025;-64
2023/05/08 10:40:34;;;;;;;12.20;5.40;;;19.70;99.90;;;;;;5038240;28;20044;-65
2023/05/08 10:43:01;;;;;;;9.77;5.15;;;19.80;99.90;;;;;;5037735;28;20120;-65
2023/05/08 10:45:28;;;;;;;9.23;4.53;;;20.00;99.90;;;;;;5037837;28;20059;-64
2023/05/08 10:48:39;;;;;;;9.40;5.00;;;20.10;99.90;;;;;;5042718;28;20131;-65
2023/05/08 10:51:11;;;;;;;7.28;4.78;;;20.20;99.90;;;;;;5033293;28;20041;-65
2023/05/08 10:53:54;;;;;;;7.03;4.55;;;20.30;99.90;;;;;;5039653;28;20073;-63
2023/05/08 10:56:28;;;;;;;8.75;5.20;;;20.40;99.40;;;;;;5040131;28;20040;-64
2023/05/08 10:58:58;;;;;;;8.20;5.82;;;20.40;98.20;;;;;;5020677;28;20095;-65
2023/05/08 11:01:25;;;;;;;7.45;5.60;;;20.20;99.10;;;;;;5037909;28;20053;-65
2023/05/08 11:03:50;;;;;;;10.27;5.63;;;20.00;99.90;;;;;;5042989;28;20125;-63
2023/05/08 11:06:17;;;;;;;6.80;4.88;;;20.00;99.90;;;;;;5036823;28;20482;-64
2023/05/08 11:08:53;;;;;;;7.82;5.30;;;20.10;99.90;;;;;;5040552;28;20394;-64
2023/05/08 11:11:27;;;;;;;6.50;4.88;;;20.20;99.90;;;;;;5038236;28;20061;-64
2023/05/08 11:14:14;;;;;;;7.78;4.80;;;20.10;98.70;;;;;;5033427;28;20378;-63
2023/05/08 11:17:07;;;;;;;5.20;4.18;;;20.00;99.90;;;;;;5043401;28;20049;-63
2023/05/08 11:19:33;;;;;;;7.72;4.20;;;20.10;99.10;;;;;;5042779;28;20057;-63
2023/05/08 11:22:20;;;;;;;4.80;4.07;;;20.10;99.80;;;;;;5042439;28;20041;-63
2023/05/08 11:25:07;;;;;;;6.38;4.47;;;20.20;98.70;;;;;;5040271;28;20045;-64
2023/05/08 11:27:46;;;;;;;6.82;4.47;;;20.10;98.20;;;;;;5037106;28;20061;-64
2023/05/08 11:30:24;;;;;;;7.88;4.80;;;20.10;99.90;;;;;;5039686;28;20061;-64
2023/05/08 11:33:02;;;;;;;5.85;4.30;;;20.10;99.10;;;;;;5042347;28;20413;-64
2023/05/08 11:35:51;;;;;;;5.25;4.30;;;20.10;99.90;;;;;;5038433;28;20041;-64
2023/05/08 11:38:26;;;;;;;10.55;4.82;;;20.10;99.90;;;;;;5041835;28;20037;-64
2023/05/08 11:40:59;;;;;;;6.20;4.95;;;19.90;99.60;;;;;;5041187;28;20128;-65
2023/05/08 11:43:56;;;;;;;8.15;4.53;;;19.70;99.80;;;;;;5039589;28;20497;-64
2023/05/08 11:46:22;;;;;;;6.70;4.75;;;19.60;99.90;;;;;;5040679;28;20076;-65
2023/05/08 11:48:47;;;;;;;6.93;4.43;;;19.50;99.80;;;;;;5042293;28;20061;-65
2023/05/08 11:51:16;;;;;;;6.25;4.93;;;19.50;99.90;;;;;;5042008;28;20025;-65
2023/05/08 11:53:43;;;;;;;9.60;4.97;;;19.50;99.00;;;;;;5039422;28;20040;-65
2023/05/08 11:56:09;;;;;;;7.43;4.97;;;19.50;99.60;;;;;;5042232;28;20044;-64
2023/05/08 11:58:35;;;;;;;7.93;4.55;;;19.40;99.90;;;;;;5040906;28;20037;-65
2023/05/08 12:01:01;;;;;;;8.75;5.25;;;19.40;99.90;;;;;;5038525;28;20072;-64
2023/05/08 12:03:27;;;;;;;7.40;5.10;;;19.40;99.90;;;;;;5041846;28;20083;-64
2023/05/08 12:05:57;;;;;;;6.53;5.07;;;19.60;99.90;;;;;;5039654;28;20037;-65
2023/05/08 12:08:23;;;;;;;8.05;6.18;;;19.70;99.90;;;;;;5039718;28;20060;-65
2023/05/08 12:10:50;;;;;;;7.72;5.28;;;19.50;99.30;;;;;;5041565;28;20828;-65
2023/05/08 12:13:27;;;;;;;6.70;5.50;;;19.40;99.90;;;;;;5040300;28;20844;-65
2023/05/08 12:15:57;;;;;;;;;;;19.20;99.90;;;;;;5045819;28;20041;-66
2023/05/08 12:18:25;;;;;;;6.50;4.90;;;19.10;99.90;;;;;;5044960;28;20479;-65
2023/05/08 12:20:52;;;;;;;8.18;5.68;;;19.10;99.90;;;;;;5043359;28;20688;-64
2023/05/08 12:23:18;;;;;;;8.55;5.90;;;18.90;99.90;;;;;;5044058;28;20123;-65
2023/05/08 12:25:43;;;;;;;;;;;18.80;99.90;;;;;;5045940;28;20192;-65
2023/05/08 12:28:09;;;;;;;8.87;5.73;;;18.80;99.90;;;;;;5042338;28;19923;-65
2023/05/08 12:30:35;;;;;;;6.97;5.70;;;18.60;99.90;;;;;;5036027;28;20111;-65
2023/05/08 12:33:03;;;;;;;9.20;5.82;;;18.50;99.90;;;;;;5041831;28;20731;-64
2023/05/08 12:35:30;;;;;;;10.75;6.25;;;18.60;99.90;;;;;;5044078;28;20040;-65
2023/05/08 12:38:06;;;;;;;7.63;5.93;;;18.50;99.90;;;;;;5037282;28;20124;-65
2023/05/08 12:40:39;;;;;;;7.10;5.70;;;18.50;99.90;;;;;;5041111;28;20501;-65
2023/05/08 12:43:04;;;;;;;10.18;5.50;;;18.40;99.90;;;;;;5040070;28;20063;-65
2023/05/08 12:45:32;;;;;;;;;;;18.30;99.90;;;;;;5042888;28;20488;-64
2023/05/08 12:48:03;;;;;;;7.03;5.22;;;18.30;99.90;;;;;;5041137;28;19925;-64
2023/05/08 12:50:33;;;;;;;7.43;5.40;;;18.20;99.90;;;;;;5037613;28;20505;-65
2023/05/08 12:53:06;;;;;;;8.18;5.32;;;18.30;99.90;;;;;;5038033;28;20033;-64
2023/05/08 12:55:34;;;;;;;8.52;5.15;;;18.30;99.90;;;;;;5030792;28;20049;-68
2023/05/08 12:58:11;;;;;;;8.07;5.82;;;18.30;99.90;;;;;;5041210;28;20060;-65
2023/05/08 13:00:42;;;;;;;10.32;5.63;;;18.30;99.90;;;;;;5038665;28;20190;-65
2023/05/08 13:03:09;;;;;;;7.13;4.90;;;18.30;99.90;;;;;;5038292;28;20041;-65
2023/05/08 13:05:36;;;;;;;6.38;5.35;;;18.20;99.90;;;;;;5045190;28;20037;-65
2023/05/08 13:08:03;;;;;;;7.47;5.40;;;18.30;99.90;;;;;;5037620;28;20053;-65
2023/05/08 13:10:47;;;;;;;6.95;5.45;;;18.30;99.90;;;;;;5043300;28;20046;-65